Grimstrup, Denmark
Current Conditions -  °F | °C
As of 6:50 AM on Saturday 20 Dec 2014 (Local Time) from EKEB Reporting Station
Rain Showers Rain Showers  
Wind Chill: 29°   Ceiling: 1800
Heat Index: 39°   Visibility: 6mi
Dew Point: 36°   Wind: 22mph
Humidity: 87%   Direction: 260°W
Pressure: 29.53"   Gusts: NA
Location:  55.53°N, 8.66°E
Report Text: EKEB 200550Z AUTO 26019KT 9999NDV -SHRA BKN018/// BKN086///04/02 Q1000
Loading
Personal Weather Stations






























Interactive Weather Map New forecast layout! Learn more

10-Day Weather Forecast

Advertisements
Track Severe Weather on mobile